Time;durP1;ratioP1;P1;durP2;ratioP2;P2;SDS_P1;SDS_P2;PMS_P1;PMS_P2;Temp;Humidity;BMP_temperature;BMP_pressure;BME280_temperature;BME280_humidity;BME280_pressure;Samples;Min_cycle;Max_cycle;Signal;HPM_P1;HPM_P2
2022/07/31 00:01:07;;;;;;;0.90;0.90;;;24.80;60.70;;;;;;5035285;28;20030;-68
2022/07/31 00:03:33;;;;;;;0.77;0.75;;;24.70;60.60;;;;;;5034299;28;20112;-68
2022/07/31 00:05:59;;;;;;;0.93;0.93;;;24.70;60.60;;;;;;5035116;28;20060;-69
2022/07/31 00:08:24;;;;;;;1.10;0.98;;;24.70;60.60;;;;;;5016770;28;20057;-68
2022/07/31 00:10:50;;;;;;;1.17;1.10;;;24.70;60.60;;;;;;5015367;28;20030;-69
2022/07/31 00:13:15;;;;;;;1.20;1.10;;;24.70;60.60;;;;;;5015055;28;20455;-68
2022/07/31 00:15:41;;;;;;;0.90;0.90;;;24.70;60.60;;;;;;5014248;28;20028;-68
2022/07/31 00:18:07;;;;;;;2.72;1.00;;;24.70;60.60;;;;;;5014267;28;20026;-69
2022/07/31 00:20:33;;;;;;;1.20;1.10;;;24.70;60.70;;;;;;5015210;28;20032;-68
2022/07/31 00:22:59;;;;;;;1.00;0.82;;;24.70;60.70;;;;;;5014108;28;20109;-68
2022/07/31 00:25:24;;;;;;;1.65;1.08;;;24.70;60.80;;;;;;5015213;28;20029;-68
2022/07/31 00:27:50;;;;;;;1.27;0.73;;;24.70;60.80;;;;;;5014653;28;20060;-68
2022/07/31 00:30:16;;;;;;;0.98;0.90;;;24.70;60.90;;;;;;5013808;28;20034;-68
2022/07/31 00:32:42;;;;;;;1.83;0.80;;;24.70;60.90;;;;;;5014924;28;20022;-68
2022/07/31 00:35:09;;;;;;;1.08;0.98;;;24.70;60.90;;;;;;5013770;28;20096;-69
2022/07/31 00:37:36;;;;;;;0.90;0.90;;;24.70;60.80;;;;;;5013671;28;20018;-69
2022/07/31 00:40:04;;;;;;;1.60;0.90;;;24.70;60.90;;;;;;5013822;28;20487;-68
2022/07/31 00:42:29;;;;;;;1.15;1.00;;;24.70;60.90;;;;;;5014987;28;20112;-68
2022/07/31 00:44:55;;;;;;;0.90;0.90;;;24.70;60.90;;;;;;5013593;28;20572;-69
2022/07/31 00:47:21;;;;;;;1.00;0.88;;;24.70;61.00;;;;;;5014644;28;20109;-68
2022/07/31 00:49:46;;;;;;;1.00;1.00;;;24.70;61.00;;;;;;5013295;28;20057;-68
2022/07/31 00:52:12;;;;;;;0.90;0.90;;;24.70;61.00;;;;;;5013938;28;20026;-68
2022/07/31 00:54:38;;;;;;;0.93;0.80;;;24.70;61.20;;;;;;5013506;28;20030;-68
2022/07/31 00:57:04;;;;;;;1.10;1.00;;;24.70;61.30;;;;;;5013247;28;20025;-68
2022/07/31 00:59:30;;;;;;;5.65;0.98;;;24.70;61.20;;;;;;5017314;28;20014;-68
2022/07/31 01:01:55;;;;;;;1.08;1.00;;;24.70;61.30;;;;;;5033072;28;20036;-68
2022/07/31 01:04:21;;;;;;;1.05;0.95;;;24.70;61.30;;;;;;5034318;28;20435;-68
2022/07/31 01:06:47;;;;;;;0.98;0.90;;;24.70;61.30;;;;;;5030653;28;20018;-69
2022/07/31 01:09:15;;;;;;;1.20;1.10;;;24.70;61.30;;;;;;5014323;28;20041;-68
2022/07/31 01:11:47;;;;;;;1.00;1.00;;;24.70;61.30;;;;;;5012794;28;20026;-68
2022/07/31 01:14:12;;;;;;;0.80;0.80;;;24.70;61.30;;;;;;5013233;28;20026;-68
2022/07/31 01:16:40;;;;;;;1.02;1.02;;;24.70;61.30;;;;;;5012841;28;20033;-68
2022/07/31 01:19:36;;;;;;;0.90;0.90;;;24.70;61.30;;;;;;5013185;28;20079;-68
2022/07/31 01:22:39;;;;;;;1.02;0.93;;;24.70;61.30;;;;;;5013330;28;20152;-68
2022/07/31 01:25:42;;;;;;;0.90;0.90;;;24.70;61.30;;;;;;5013962;28;20068;-68
2022/07/31 01:28:35;;;;;;;1.00;1.00;;;24.70;61.30;;;;;;5013821;28;20053;-68
2022/07/31 01:31:10;;;;;;;2.17;1.27;;;24.70;61.40;;;;;;5013930;28;20034;-68
2022/07/31 01:33:50;;;;;;;2.20;1.05;;;24.70;61.50;;;;;;5012748;28;20168;-68
2022/07/31 01:36:18;;;;;;;1.08;1.00;;;24.70;61.50;;;;;;5012648;28;20392;-68
2022/07/31 01:38:46;;;;;;;1.00;1.00;;;24.70;61.60;;;;;;5012773;28;20022;-68
2022/07/31 01:41:12;;;;;;;2.35;1.00;;;24.70;61.60;;;;;;5012564;28;20022;-68
2022/07/31 01:43:41;;;;;;;1.10;0.90;;;24.70;61.50;;;;;;5012675;28;20026;-68
2022/07/31 01:46:11;;;;;;;2.63;1.15;;;24.70;61.60;;;;;;5013753;28;20033;-68
2022/07/31 01:48:37;;;;;;;1.20;1.10;;;24.70;61.60;;;;;;5012326;28;20541;-69
2022/07/31 01:51:03;;;;;;;0.90;0.90;;;24.70;61.70;;;;;;5013594;28;20057;-68
2022/07/31 01:53:31;;;;;;;2.42;1.02;;;24.70;61.70;;;;;;5012290;28;20028;-68
2022/07/31 01:55:57;;;;;;;1.17;1.08;;;24.70;61.70;;;;;;5012451;28;20607;-68
2022/07/31 01:58:24;;;;;;;1.17;1.13;;;24.70;61.70;;;;;;5012425;28;20488;-68
2022/07/31 02:00:50;;;;;;;0.95;0.95;;;24.70;61.70;;;;;;5027155;28;20033;-68
2022/07/31 02:03:16;;;;;;;0.88;0.88;;;24.70;61.80;;;;;;5031964;28;20130;-68
2022/07/31 02:05:41;;;;;;;1.30;1.20;;;24.70;61.70;;;;;;5031881;28;20472;-69
2022/07/31 02:08:08;;;;;;;1.20;1.10;;;24.70;61.80;;;;;;5018305;28;20024;-68
2022/07/31 02:10:33;;;;;;;0.90;0.90;;;24.70;61.80;;;;;;5012039;28;20022;-68
2022/07/31 02:13:01;;;;;;;1.30;1.00;;;24.70;61.90;;;;;;5013236;28;20025;-68
2022/07/31 02:15:27;;;;;;;1.40;1.15;;;24.70;61.80;;;;;;5012007;28;20021;-68
2022/07/31 02:17:53;;;;;;;1.15;1.10;;;24.70;61.90;;;;;;5011936;28;20106;-68
2022/07/31 02:20:18;;;;;;;3.13;1.10;;;24.70;61.90;;;;;;5013244;28;20423;-68
2022/07/31 02:22:44;;;;;;;1.45;1.00;;;24.70;62.00;;;;;;5011698;28;20026;-72
2022/07/31 02:25:10;;;;;;;1.15;1.10;;;24.70;62.00;;;;;;5011871;28;20447;-72
2022/07/31 02:27:36;;;;;;;1.20;1.17;;;24.70;62.10;;;;;;5011469;28;20086;-72
2022/07/31 02:30:02;;;;;;;1.42;1.20;;;24.70;62.00;;;;;;5011815;28;20036;-72
2022/07/31 02:32:30;;;;;;;2.75;1.30;;;24.70;62.00;;;;;;5011890;28;20057;-72
2022/07/31 02:34:55;;;;;;;1.60;1.23;;;24.70;62.00;;;;;;5011922;28;20084;-72
2022/07/31 02:37:24;;;;;;;1.05;0.98;;;24.70;62.00;;;;;;5011467;28;20440;-72
2022/07/31 02:39:51;;;;;;;1.00;1.00;;;24.70;62.00;;;;;;5011745;28;20087;-72
2022/07/31 02:42:16;;;;;;;1.40;1.00;;;24.70;62.00;;;;;;5012681;28;20110;-72
2022/07/31 02:44:42;;;;;;;4.18;1.50;;;24.70;62.10;;;;;;5011657;28;20141;-72
2022/07/31 02:47:08;;;;;;;1.42;1.00;;;24.70;62.10;;;;;;5011607;28;20026;-72
2022/07/31 02:49:33;;;;;;;1.27;1.17;;;24.70;62.20;;;;;;5011604;28;20029;-72
2022/07/31 02:51:59;;;;;;;1.20;1.10;;;24.70;62.10;;;;;;5011205;28;20034;-72
2022/07/31 02:54:25;;;;;;;2.67;1.38;;;24.70;62.20;;;;;;5012791;28;20030;-72
2022/07/31 02:56:51;;;;;;;1.30;0.98;;;24.70;62.20;;;;;;5011369;28;20405;-72
2022/07/31 02:59:17;;;;;;;1.30;1.20;;;24.70;62.20;;;;;;5013957;28;20112;-72
2022/07/31 03:01:42;;;;;;;1.30;1.20;;;24.70;62.30;;;;;;5032297;28;20104;-72
2022/07/31 03:04:09;;;;;;;1.55;1.10;;;24.70;62.30;;;;;;5032553;28;20498;-72
2022/07/31 03:06:35;;;;;;;2.30;1.50;;;24.70;62.30;;;;;;5030730;28;20026;-72
2022/07/31 03:09:00;;;;;;;3.90;1.33;;;24.70;62.40;;;;;;5032090;28;20060;-72
2022/07/31 03:11:26;;;;;;;2.45;1.33;;;24.70;62.50;;;;;;5032240;28;20065;-72
2022/07/31 03:13:52;;;;;;;1.50;1.40;;;24.70;62.50;;;;;;5032552;28;20026;-72
2022/07/31 03:16:18;;;;;;;1.30;1.20;;;24.70;62.50;;;;;;5035165;28;20028;-72
2022/07/31 03:18:44;;;;;;;2.92;1.00;;;24.80;62.60;;;;;;5035078;28;20017;-72
2022/07/31 03:21:10;;;;;;;2.10;1.17;;;24.70;62.50;;;;;;5034807;28;20391;-72
2022/07/31 03:23:36;;;;;;;1.27;1.23;;;24.70;62.40;;;;;;5035019;28;20029;-72
2022/07/31 03:26:03;;;;;;;3.35;1.40;;;24.70;62.50;;;;;;5035106;28;20377;-72
2022/07/31 03:28:28;;;;;;;1.23;1.13;;;24.70;62.50;;;;;;5035845;28;20041;-72
2022/07/31 03:30:55;;;;;;;1.77;1.25;;;24.70;62.50;;;;;;5035866;28;20049;-72
2022/07/31 03:33:21;;;;;;;1.77;1.30;;;24.70;62.50;;;;;;5036012;28;20032;-72
2022/07/31 03:35:47;;;;;;;1.45;1.30;;;24.70;62.50;;;;;;5034425;28;20030;-72
2022/07/31 03:38:13;;;;;;;1.17;1.17;;;24.70;62.50;;;;;;5036055;28;20052;-72
2022/07/31 03:40:39;;;;;;;1.33;1.08;;;24.70;62.50;;;;;;5035739;28;20057;-72
2022/07/31 03:43:04;;;;;;;1.20;1.13;;;24.80;62.50;;;;;;5035740;28;20040;-72
2022/07/31 03:45:30;;;;;;;2.55;1.25;;;24.70;62.50;;;;;;5034802;28;20045;-73
2022/07/31 03:47:56;;;;;;;1.20;1.10;;;24.70;62.50;;;;;;5034470;28;20464;-73
2022/07/31 03:50:22;;;;;;;1.77;1.25;;;24.70;62.50;;;;;;5035466;28;20396;-73
2022/07/31 03:52:47;;;;;;;1.17;1.08;;;24.70;63.50;;;;;;5034363;28;20395;-73
2022/07/31 03:55:13;;;;;;;1.83;1.25;;;24.80;62.40;;;;;;5034396;28;20057;-73
2022/07/31 03:57:39;;;;;;;1.60;1.45;;;24.70;62.30;;;;;;5034253;28;20021;-72
2022/07/31 04:00:05;;;;;;;1.77;1.10;;;24.70;62.40;;;;;;5034343;28;20053;-73
2022/07/31 04:02:31;;;;;;;1.95;1.23;;;24.70;62.40;;;;;;5034110;28;20098;-73
2022/07/31 04:04:56;;;;;;;1.15;1.05;;;24.80;62.40;;;;;;5035289;28;20026;-73
2022/07/31 04:07:23;;;;;;;1.13;1.13;;;24.70;62.40;;;;;;5028110;28;20053;-73
2022/07/31 04:09:48;;;;;;;1.08;0.98;;;24.80;62.40;;;;;;5014077;28;20026;-72
2022/07/31 04:12:14;;;;;;;1.30;1.20;;;24.80;62.50;;;;;;5014447;28;20026;-73
2022/07/31 04:14:40;;;;;;;6.80;1.40;;;24.70;62.40;;;;;;5014119;28;20444;-73
2022/07/31 04:17:05;;;;;;;1.55;1.45;;;24.70;62.40;;;;;;5014133;28;20085;-72
2022/07/31 04:19:31;;;;;;;1.42;1.20;;;24.70;62.50;;;;;;5015241;28;20026;-72
2022/07/31 04:21:57;;;;;;;1.00;1.00;;;24.70;63.60;;;;;;5013959;28;20034;-72
2022/07/31 04:24:23;;;;;;;1.30;1.17;;;24.70;62.50;;;;;;5015417;28;20030;-72
2022/07/31 04:26:49;;;;;;;1.67;1.45;;;24.70;62.50;;;;;;5012643;28;20033;-72
2022/07/31 04:29:15;;;;;;;1.30;1.20;;;24.70;62.60;;;;;;5013858;28;20060;-72
2022/07/31 04:31:41;;;;;;;3.67;1.35;;;24.70;62.60;;;;;;5013750;28;20109;-72
2022/07/31 04:34:06;;;;;;;3.28;1.20;;;24.70;62.70;;;;;;5015057;28;20057;-72
2022/07/31 04:36:32;;;;;;;1.55;1.30;;;24.70;62.70;;;;;;5014920;28;20033;-72
2022/07/31 04:38:59;;;;;;;1.40;1.30;;;24.70;62.70;;;;;;5014888;28;20018;-72
2022/07/31 04:41:25;;;;;;;2.20;1.10;;;24.70;62.70;;;;;;5015135;28;20049;-72
2022/07/31 04:43:50;;;;;;;1.75;1.30;;;24.70;62.70;;;;;;5014785;28;20057;-72
2022/07/31 04:46:16;;;;;;;1.20;1.20;;;24.70;62.70;;;;;;5014956;28;20111;-72
2022/07/31 04:48:41;;;;;;;8.05;1.40;;;24.70;62.80;;;;;;5014437;28;20554;-72
2022/07/31 04:51:07;;;;;;;1.33;1.23;;;24.70;62.80;;;;;;5014692;28;20030;-72
2022/07/31 04:53:33;;;;;;;2.70;1.30;;;24.70;62.80;;;;;;5013650;28;20026;-72
2022/07/31 04:58:42;;;;;;;2.45;1.20;;;24.70;62.90;;;;;;5014468;28;20025;-72
2022/07/31 05:01:08;;;;;;;1.15;1.10;;;24.70;62.80;;;;;;5030863;28;20033;-72
2022/07/31 05:03:34;;;;;;;1.55;1.30;;;24.70;62.90;;;;;;5033317;28;20037;-72
2022/07/31 05:06:10;;;;;;;2.45;1.20;;;24.70;62.90;;;;;;5034219;28;20034;-72
2022/07/31 05:08:35;;;;;;;1.40;1.30;;;24.70;62.80;;;;;;5015758;28;20026;-72
2022/07/31 05:13:46;;;;;;;2.08;1.20;;;24.70;63.30;;;;;;5014222;28;20545;-72
2022/07/31 05:16:11;;;;;;;4.28;1.67;;;24.70;62.90;;;;;;5014469;28;20108;-72
2022/07/31 05:18:37;;;;;;;1.92;1.23;;;24.70;62.90;;;;;;5012875;28;20104;-72
2022/07/31 05:21:03;;;;;;;1.30;1.20;;;24.70;62.90;;;;;;5014152;28;20504;-72
2022/07/31 05:23:28;;;;;;;1.75;1.20;;;24.70;62.90;;;;;;5013185;28;20479;-72
2022/07/31 05:25:54;;;;;;;1.42;1.20;;;24.80;63.00;;;;;;5013959;28;20026;-72
2022/07/31 05:28:19;;;;;;;1.58;1.20;;;24.70;62.90;;;;;;5013914;28;20077;-72
2022/07/31 05:30:45;;;;;;;1.40;1.30;;;24.70;63.00;;;;;;5014037;28;20121;-72
2022/07/31 05:33:11;;;;;;;4.43;1.40;;;24.70;62.90;;;;;;5013699;28;20100;-72
2022/07/31 05:35:36;;;;;;;2.90;1.20;;;24.70;62.90;;;;;;5014174;28;20037;-72
2022/07/31 05:38:02;;;;;;;1.70;1.27;;;24.70;62.90;;;;;;5012310;28;20431;-72
2022/07/31 05:40:27;;;;;;;2.83;1.25;;;24.70;62.90;;;;;;5013916;28;20037;-72
2022/07/31 05:42:54;;;;;;;1.40;1.30;;;24.70;62.90;;;;;;5012542;28;20092;-72
2022/07/31 05:45:19;;;;;;;1.50;1.40;;;24.70;62.90;;;;;;5013637;28;20510;-72
2022/07/31 05:47:45;;;;;;;2.15;1.30;;;24.70;62.90;;;;;;5012279;28;20026;-72
2022/07/31 05:50:11;;;;;;;2.58;1.35;;;24.70;63.00;;;;;;5012392;28;20034;-72
2022/07/31 05:52:36;;;;;;;2.63;1.30;;;24.70;63.00;;;;;;5013522;28;20029;-72
2022/07/31 05:55:02;;;;;;;1.40;1.30;;;24.80;63.00;;;;;;5013467;28;20025;-72
2022/07/31 05:57:28;;;;;;;2.17;1.40;;;24.70;62.90;;;;;;5013668;28;20014;-72
2022/07/31 05:59:54;;;;;;;1.30;1.20;;;24.70;63.00;;;;;;5020751;28;20468;-72
2022/07/31 06:02:19;;;;;;;0.90;0.90;;;24.70;63.00;;;;;;5033053;28;20104;-72
2022/07/31 06:04:45;;;;;;;1.05;1.05;;;24.70;62.90;;;;;;5033129;28;20074;-72
2022/07/31 06:07:10;;;;;;;1.20;1.10;;;24.70;62.90;;;;;;5027607;28;20022;-72
2022/07/31 06:09:36;;;;;;;1.27;1.05;;;24.70;63.00;;;;;;5013242;28;20022;-72
2022/07/31 06:12:02;;;;;;;2.17;1.23;;;24.80;63.00;;;;;;5012985;28;20029;-72
2022/07/31 06:14:27;;;;;;;1.15;1.10;;;24.70;63.90;;;;;;5013152;28;20034;-72
2022/07/31 06:16:53;;;;;;;1.70;1.10;;;24.70;62.90;;;;;;5013199;28;20022;-72
2022/07/31 06:19:19;;;;;;;1.27;1.17;;;24.70;62.90;;;;;;5013152;28;20034;-72
2022/07/31 06:21:45;;;;;;;1.20;1.10;;;24.70;62.90;;;;;;5013184;28;20049;-72
2022/07/31 06:24:10;;;;;;;1.67;1.50;;;24.70;62.80;;;;;;5011850;28;20041;-72
2022/07/31 06:26:36;;;;;;;1.38;1.27;;;24.80;63.00;;;;;;5011914;28;20485;-72
2022/07/31 06:29:02;;;;;;;1.30;1.20;;;24.70;62.90;;;;;;5011595;28;20054;-72
2022/07/31 06:31:28;;;;;;;1.20;1.10;;;24.70;62.80;;;;;;5013135;28;20033;-72
2022/07/31 06:33:54;;;;;;;1.20;1.10;;;24.70;62.90;;;;;;5012634;28;20033;-72
2022/07/31 06:36:19;;;;;;;1.23;1.00;;;24.70;62.90;;;;;;5012878;28;20022;-72
2022/07/31 06:38:45;;;;;;;1.30;1.10;;;24.70;62.90;;;;;;5012790;28;20022;-72
2022/07/31 06:41:43;;;;;;;2.67;1.27;;;24.70;62.80;;;;;;5011590;28;20046;-72
2022/07/31 06:43:56;;;;;;;1.67;1.58;;;24.70;62.90;;;;;;5012197;28;20400;-72
2022/07/31 06:46:22;;;;;;;1.27;1.08;;;24.70;62.90;;;;;;5012859;28;20041;-72
2022/07/31 06:48:47;;;;;;;2.35;1.42;;;24.70;62.90;;;;;;5012143;28;20481;-72
2022/07/31 06:51:13;;;;;;;1.92;0.98;;;24.70;62.90;;;;;;5012547;28;20033;-72
2022/07/31 06:53:38;;;;;;;1.02;0.93;;;24.70;62.90;;;;;;5036655;28;20025;-72
2022/07/31 06:56:04;;;;;;;1.73;1.15;;;24.70;62.70;;;;;;5042389;28;20029;-72
2022/07/31 06:58:30;;;;;;;2.13;1.00;;;24.70;62.90;;;;;;5039654;28;20025;-73
2022/07/31 07:00:56;;;;;;;1.50;1.05;;;24.70;62.90;;;;;;5041246;28;20051;-72
2022/07/31 07:03:22;;;;;;;1.35;1.10;;;24.70;63.00;;;;;;5041117;28;20029;-72
2022/07/31 07:05:47;;;;;;;1.75;1.27;;;24.70;62.90;;;;;;5038379;28;20028;-72
2022/07/31 07:08:13;;;;;;;1.27;1.20;;;24.70;63.00;;;;;;5038357;28;20029;-72
2022/07/31 07:10:38;;;;;;;1.00;1.00;;;24.70;63.00;;;;;;5039205;28;20044;-72
2022/07/31 07:13:04;;;;;;;1.77;1.30;;;24.70;63.00;;;;;;5037835;28;20036;-72
2022/07/31 07:15:30;;;;;;;6.28;1.27;;;24.70;63.00;;;;;;5041785;28;20025;-72
2022/07/31 07:17:55;;;;;;;1.85;1.05;;;24.70;63.00;;;;;;5040499;28;20387;-72
2022/07/31 07:20:21;;;;;;;1.27;1.17;;;24.70;63.10;;;;;;5040426;28;20371;-72
2022/07/31 07:22:47;;;;;;;2.40;1.08;;;24.70;63.10;;;;;;5034072;28;20030;-72
2022/07/31 07:25:13;;;;;;;1.13;1.02;;;24.70;63.10;;;;;;5039005;28;20032;-72
2022/07/31 07:27:39;;;;;;;1.60;1.10;;;24.70;63.10;;;;;;5040587;28;20052;-72
2022/07/31 07:30:05;;;;;;;1.35;1.25;;;24.70;63.10;;;;;;5038342;28;20033;-72
2022/07/31 07:32:31;;;;;;;3.28;1.20;;;24.70;63.10;;;;;;5039700;28;20033;-72
2022/07/31 07:34:57;;;;;;;1.77;0.95;;;24.70;63.10;;;;;;5039147;28;20376;-72
2022/07/31 07:37:22;;;;;;;0.98;0.98;;;24.70;63.20;;;;;;5041706;28;20017;-72
2022/07/31 07:39:48;;;;;;;1.00;1.00;;;24.70;63.10;;;;;;5038413;28;20036;-72
2022/07/31 07:42:13;;;;;;;1.80;0.98;;;24.70;63.20;;;;;;5040074;28;20025;-72
2022/07/31 07:44:40;;;;;;;1.23;1.00;;;24.70;63.10;;;;;;5038147;28;20030;-72
2022/07/31 07:47:08;;;;;;;2.05;1.10;;;24.70;63.10;;;;;;5039234;28;20028;-72
2022/07/31 07:49:34;;;;;;;1.40;1.05;;;24.70;63.20;;;;;;5039672;28;20013;-72
2022/07/31 07:52:02;;;;;;;2.55;1.00;;;24.70;63.10;;;;;;5040961;28;20092;-72
2022/07/31 07:54:29;;;;;;;1.10;1.00;;;24.70;63.10;;;;;;5039320;28;20021;-72
2022/07/31 07:56:55;;;;;;;1.98;0.98;;;24.60;63.00;;;;;;5033549;28;20109;-72
2022/07/31 07:59:23;;;;;;;2.38;1.02;;;24.70;63.10;;;;;;5031728;28;20096;-72
2022/07/31 08:01:50;;;;;;;1.38;1.27;;;24.60;63.10;;;;;;5034913;28;20387;-72
2022/07/31 08:04:17;;;;;;;1.60;1.20;;;24.70;63.20;;;;;;5035363;28;20021;-72
2022/07/31 08:06:44;;;;;;;1.20;1.10;;;24.70;63.10;;;;;;5035531;28;20036;-72
2022/07/31 08:09:10;;;;;;;1.67;0.90;;;24.70;63.20;;;;;;5035404;28;20029;-72
2022/07/31 08:11:36;;;;;;;1.10;1.00;;;24.70;63.30;;;;;;5035209;28;20033;-72
2022/07/31 08:14:01;;;;;;;2.05;1.20;;;24.70;63.30;;;;;;5054902;28;20017;-72
2022/07/31 08:16:27;;;;;;;1.00;1.00;;;24.70;63.20;;;;;;5055248;28;20033;-72
2022/07/31 08:18:53;;;;;;;1.00;1.00;;;24.60;63.20;;;;;;5055329;28;20025;-72
2022/07/31 08:21:19;;;;;;;1.00;0.90;;;24.70;63.30;;;;;;5054947;28;20108;-72
2022/07/31 08:23:46;;;;;;;1.02;0.93;;;24.70;63.30;;;;;;5055011;28;20025;-72
2022/07/31 08:26:11;;;;;;;0.98;0.80;;;24.60;63.30;;;;;;5054910;28;20029;-72
2022/07/31 08:28:37;;;;;;;1.02;0.95;;;24.60;63.40;;;;;;5053609;28;20427;-72
2022/07/31 08:31:03;;;;;;;0.90;0.90;;;24.70;63.50;;;;;;5053579;28;20055;-72
2022/07/31 08:33:29;;;;;;;2.83;1.38;;;24.70;63.40;;;;;;5053809;28;20494;-72
2022/07/31 08:35:54;;;;;;;1.38;1.05;;;24.60;63.40;;;;;;5054852;28;20502;-72
2022/07/31 08:38:20;;;;;;;1.00;1.00;;;24.60;63.40;;;;;;5053531;28;20096;-72
2022/07/31 08:40:46;;;;;;;1.17;0.90;;;24.60;63.40;;;;;;5053549;28;20036;-72
2022/07/31 08:43:12;;;;;;;1.13;1.00;;;24.60;63.50;;;;;;5054731;28;20027;-72
2022/07/31 08:45:39;;;;;;;1.00;0.82;;;24.60;63.40;;;;;;5051420;28;20026;-72
2022/07/31 08:48:05;;;;;;;1.35;1.00;;;24.60;63.50;;;;;;5066486;28;20215;-72
2022/07/31 08:50:30;;;;;;;0.90;0.90;;;24.60;63.60;;;;;;5049844;28;20472;-72
2022/07/31 08:52:56;;;;;;;1.02;0.85;;;24.60;63.50;;;;;;5066863;28;20017;-72
2022/07/31 08:55:21;;;;;;;1.45;0.80;;;24.60;63.60;;;;;;5064655;28;20555;-72
2022/07/31 08:57:47;;;;;;;1.33;0.80;;;24.60;63.60;;;;;;5032051;28;20030;-72
2022/07/31 09:00:18;;;;;;;0.93;0.77;;;24.60;63.70;;;;;;5034070;28;20041;-72
2022/07/31 09:02:44;;;;;;;0.75;0.75;;;24.60;64.00;;;;;;5031525;28;20510;-72
2022/07/31 09:05:12;;;;;;;1.58;1.00;;;24.60;64.10;;;;;;5035895;28;20033;-72
2022/07/31 09:07:39;;;;;;;1.00;1.00;;;24.70;64.30;;;;;;5040636;28;20502;-72
2022/07/31 09:10:24;;;;;;;1.05;1.00;;;24.70;64.50;;;;;;5034512;28;20029;-72
2022/07/31 09:12:50;;;;;;;2.08;1.00;;;24.60;64.40;;;;;;5061136;28;20105;-72
2022/07/31 09:15:23;;;;;;;0.75;0.75;;;24.70;64.60;;;;;;5046132;28;20111;-72
2022/07/31 09:17:50;;;;;;;0.88;0.88;;;24.70;64.70;;;;;;5049912;28;20063;-72
2022/07/31 09:20:17;;;;;;;2.17;0.80;;;24.70;64.70;;;;;;5032145;28;20017;-72
2022/07/31 09:22:43;;;;;;;1.45;1.08;;;24.70;64.80;;;;;;5048285;28;20025;-72
2022/07/31 09:25:17;;;;;;;1.52;0.90;;;24.70;64.70;;;;;;5050870;28;20043;-72
2022/07/31 09:27:47;;;;;;;2.95;0.93;;;24.70;64.70;;;;;;5043705;28;20057;-74
2022/07/31 09:30:14;;;;;;;0.60;0.60;;;24.70;64.60;;;;;;5062361;28;20033;-73
2022/07/31 09:32:40;;;;;;;0.63;0.63;;;24.80;63.10;;;;;;5047642;28;20032;-73
2022/07/31 09:35:07;;;;;;;0.90;0.90;;;24.80;62.50;;;;;;5041599;28;20024;-73
2022/07/31 09:37:33;;;;;;;0.70;0.70;;;24.70;62.30;;;;;;5031199;28;20025;-75
2022/07/31 09:39:59;;;;;;;0.50;0.50;;;24.70;62.00;;;;;;5041494;28;20082;-74
2022/07/31 09:42:42;;;;;;;0.47;0.43;;;24.60;61.90;;;;;;5042031;28;20067;-74
2022/07/31 09:45:22;;;;;;;0.47;0.47;;;24.70;61.70;;;;;;5063054;28;20602;-74
2022/07/31 09:48:11;;;;;;;0.40;0.40;;;24.70;61.50;;;;;;5038513;28;20495;-72
2022/07/31 09:50:54;;;;;;;0.40;0.40;;;24.80;61.40;;;;;;5040930;28;20028;-72
2022/07/31 09:53:21;;;;;;;0.40;0.40;;;24.70;61.30;;;;;;5038664;28;20025;-73
2022/07/31 09:55:54;;;;;;;1.50;0.47;;;24.80;61.00;;;;;;5048449;28;20024;-72
2022/07/31 09:58:22;;;;;;;0.30;0.30;;;24.80;61.00;;;;;;5038866;28;20379;-72
2022/07/31 10:00:50;;;;;;;0.43;0.32;;;24.80;60.80;;;;;;5063955;28;20036;-73
2022/07/31 10:03:20;;;;;;;1.02;0.40;;;24.80;60.80;;;;;;5049289;28;20018;-73
2022/07/31 10:05:46;;;;;;;0.40;0.40;;;24.80;60.60;;;;;;5048117;28;20021;-73
2022/07/31 10:08:12;;;;;;;0.40;0.30;;;24.80;60.50;;;;;;5040565;28;20517;-73
2022/07/31 10:10:38;;;;;;;0.40;0.40;;;24.80;60.60;;;;;;5039412;28;20119;-73
2022/07/31 10:13:08;;;;;;;0.77;0.55;;;24.80;60.40;;;;;;5025560;28;20092;-73
2022/07/31 10:15:36;;;;;;;0.40;0.40;;;24.80;60.40;;;;;;5062725;28;20048;-72
2022/07/31 10:18:04;;;;;;;0.50;0.50;;;24.90;60.10;;;;;;5040720;28;20021;-72
2022/07/31 10:20:30;;;;;;;3.67;0.60;;;24.90;60.30;;;;;;5022792;28;20116;-73
2022/07/31 10:23:00;;;;;;;1.23;0.70;;;24.90;60.10;;;;;;5005616;28;20509;-72
2022/07/31 10:25:29;;;;;;;0.47;0.47;;;24.90;59.90;;;;;;5022334;28;20022;-72
2022/07/31 10:27:56;;;;;;;0.40;0.40;;;24.90;59.80;;;;;;5048390;28;20478;-73
2022/07/31 10:30:22;;;;;;;2.05;0.80;;;24.90;59.80;;;;;;5047813;28;20032;-72
2022/07/31 10:32:49;;;;;;;0.55;0.50;;;25.00;59.90;;;;;;5040502;28;20028;-72
2022/07/31 10:35:14;;;;;;;2.20;0.50;;;25.00;59.70;;;;;;5048720;28;20104;-72
2022/07/31 10:38:03;;;;;;;0.50;0.50;;;25.00;59.60;;;;;;5051838;28;20569;-72
2022/07/31 10:40:33;;;;;;;2.17;0.57;;;25.00;59.90;;;;;;5012890;28;20033;-72
2022/07/31 10:43:17;;;;;;;2.85;0.50;;;25.00;59.30;;;;;;5012522;28;20480;-72
2022/07/31 10:46:01;;;;;;;1.13;0.80;;;25.00;59.30;;;;;;5011786;28;20030;-73
2022/07/31 10:48:27;;;;;;;0.60;0.60;;;25.10;59.30;;;;;;5016080;28;20352;-73
2022/07/31 10:51:08;;;;;;;0.60;0.50;;;25.00;59.20;;;;;;5029315;28;20045;-73
2022/07/31 10:53:34;;;;;;;2.00;1.13;;;25.10;59.30;;;;;;5013316;28;20021;-73
2022/07/31 10:56:04;;;;;;;1.33;0.80;;;25.10;59.20;;;;;;5012007;28;20018;-73
2022/07/31 10:58:30;;;;;;;4.15;0.80;;;25.10;58.90;;;;;;5011848;28;20023;-73
2022/07/31 11:01:15;;;;;;;1.60;0.50;;;25.10;58.90;;;;;;5028895;28;20029;-73
2022/07/31 11:03:45;;;;;;;2.08;0.90;;;25.10;58.90;;;;;;5064722;28;20112;-73
2022/07/31 11:06:11;;;;;;;1.75;0.70;;;25.20;58.90;;;;;;5031397;28;20026;-74
2022/07/31 11:08:47;;;;;;;0.85;0.60;;;25.20;58.70;;;;;;5031661;28;20480;-75
2022/07/31 11:11:13;;;;;;;0.50;0.50;;;25.20;58.60;;;;;;5032732;28;20447;-75
2022/07/31 11:13:49;;;;;;;0.63;0.50;;;25.20;58.70;;;;;;5031126;28;20026;-75
2022/07/31 11:16:15;;;;;;;3.58;0.75;;;25.20;58.30;;;;;;5063988;28;20043;-76
2022/07/31 11:18:41;;;;;;;1.85;0.75;;;25.10;58.50;;;;;;5064981;28;20515;-76
2022/07/31 11:21:07;;;;;;;2.67;0.85;;;25.20;58.80;;;;;;5064542;28;20438;-77
2022/07/31 11:23:33;;;;;;;1.52;0.77;;;25.20;58.90;;;;;;5064778;28;20507;-76
2022/07/31 11:26:03;;;;;;;0.80;0.80;;;25.10;58.80;;;;;;5032871;28;20022;-76
2022/07/31 11:28:29;;;;;;;1.48;0.90;;;25.10;58.90;;;;;;5047286;28;20103;-76
2022/07/31 11:30:55;;;;;;;1.23;0.90;;;25.10;58.90;;;;;;5052648;28;20144;-77
2022/07/31 11:33:31;;;;;;;1.10;0.95;;;25.20;59.00;;;;;;5051386;28;20017;-76
2022/07/31 11:36:03;;;;;;;1.30;1.20;;;25.20;59.10;;;;;;5054761;28;20028;-79
2022/07/31 11:38:29;;;;;;;1.25;1.13;;;25.10;59.20;;;;;;5055473;28;20506;-80
2022/07/31 11:40:54;;;;;;;2.35;1.30;;;25.10;59.20;;;;;;5056605;28;20052;-78
2022/07/31 11:43:20;;;;;;;1.50;1.40;;;25.20;59.20;;;;;;5056503;28;20029;-77
2022/07/31 11:45:47;;;;;;;2.53;1.73;;;25.20;59.20;;;;;;5050309;28;20061;-76
2022/07/31 11:48:15;;;;;;;2.75;1.60;;;25.20;59.20;;;;;;5046793;28;20082;-71
2022/07/31 11:50:41;;;;;;;2.08;1.40;;;25.20;59.50;;;;;;5050371;28;20082;-75
2022/07/31 11:53:07;;;;;;;2.00;1.73;;;25.20;59.60;;;;;;5045598;28;20055;-74
2022/07/31 11:55:43;;;;;;;3.20;1.67;;;25.20;59.90;;;;;;5042848;28;20017;-74
2022/07/31 11:58:12;;;;;;;2.60;1.77;;;25.10;59.90;;;;;;5048586;28;20457;-74
2022/07/31 12:00:38;;;;;;;2.33;1.65;;;25.00;59.90;;;;;;5046520;28;20503;-74
2022/07/31 12:03:03;;;;;;;3.47;2.00;;;25.00;60.00;;;;;;5044998;28;20025;-74
2022/07/31 12:05:30;;;;;;;2.47;1.90;;;25.00;60.10;;;;;;5027160;28;20025;-74
2022/07/31 12:07:57;;;;;;;3.20;2.03;;;24.90;60.00;;;;;;5038053;28;20072;-74
2022/07/31 12:10:23;;;;;;;3.20;1.90;;;24.90;60.00;;;;;;5064714;28;20116;-74
2022/07/31 12:12:49;;;;;;;4.53;1.83;;;24.90;60.20;;;;;;5025945;28;20017;-73
2022/07/31 12:15:19;;;;;;;3.15;1.80;;;24.90;60.30;;;;;;5043755;28;20399;-73
2022/07/31 12:17:48;;;;;;;3.90;1.80;;;24.90;60.40;;;;;;5046007;28;20082;-74
2022/07/31 12:20:14;;;;;;;3.47;1.92;;;24.90;60.40;;;;;;5041048;28;20026;-73
2022/07/31 12:22:40;;;;;;;2.58;2.00;;;24.90;60.40;;;;;;5066470;28;20021;-73
2022/07/31 12:25:08;;;;;;;2.38;1.80;;;24.90;60.40;;;;;;5049982;28;20018;-73
2022/07/31 12:27:35;;;;;;;2.47;1.90;;;24.90;60.50;;;;;;5039291;28;20084;-73
2022/07/31 12:30:14;;;;;;;3.97;2.10;;;24.90;60.70;;;;;;5045343;28;20048;-73
2022/07/31 12:32:45;;;;;;;3.33;2.05;;;24.90;60.90;;;;;;5063581;28;20067;-73
2022/07/31 12:35:11;;;;;;;5.18;2.15;;;24.90;61.30;;;;;;5045759;28;20400;-72
2022/07/31 12:37:52;;;;;;;4.07;2.55;;;24.90;61.20;;;;;;5036473;28;20429;-72
2022/07/31 12:40:25;;;;;;;3.20;2.05;;;24.90;61.10;;;;;;5044731;28;20599;-72
2022/07/31 12:42:50;;;;;;;4.18;2.10;;;24.90;61.40;;;;;;5044196;28;20021;-72
2022/07/31 12:45:26;;;;;;;2.70;2.00;;;24.80;61.40;;;;;;5042482;28;20024;-72
2022/07/31 12:47:53;;;;;;;2.28;1.92;;;24.80;61.40;;;;;;5062134;28;20017;-74
2022/07/31 12:50:20;;;;;;;2.78;2.22;;;24.90;61.60;;;;;;5046378;28;20017;-73
2022/07/31 12:52:46;;;;;;;6.55;2.65;;;24.90;61.60;;;;;;5043070;28;20021;-73
2022/07/31 12:55:16;;;;;;;3.25;2.25;;;24.90;61.60;;;;;;5043907;28;20087;-73